sensor_id;sensor_type;location;lat;lon;timestamp;temperature;humidity
38359;DHT22;42072;48.044;14.416;2023-04-24T00:00:04;10.70;1.00
38359;DHT22;42072;48.044;14.416;2023-04-24T00:02:40;10.80;1.00
38359;DHT22;42072;48.044;14.416;2023-04-24T00:05:08;11.00;1.00
38359;DHT22;42072;48.044;14.416;2023-04-24T00:07:35;11.20;1.00
38359;DHT22;42072;48.044;14.416;2023-04-24T00:10:03;11.40;99.90
38359;DHT22;42072;48.044;14.416;2023-04-24T00:12:30;11.60;99.90
38359;DHT22;42072;48.044;14.416;2023-04-24T00:14:58;11.80;99.90
38359;DHT22;42072;48.044;14.416;2023-04-24T00:17:25;12.00;99.90
38359;DHT22;42072;48.044;14.416;2023-04-24T00:19:52;12.10;99.90
38359;DHT22;42072;48.044;14.416;2023-04-24T00:22:25;12.20;99.90
38359;DHT22;42072;48.044;14.416;2023-04-24T00:24:53;12.30;99.90
38359;DHT22;42072;48.044;14.416;2023-04-24T00:27:21;12.40;99.90
38359;DHT22;42072;48.044;14.416;2023-04-24T00:29:48;12.50;99.90
38359;DHT22;42072;48.044;14.416;2023-04-24T00:32:15;12.50;99.90
38359;DHT22;42072;48.044;14.416;2023-04-24T00:34:45;12.60;99.90
38359;DHT22;42072;48.044;14.416;2023-04-24T00:37:12;12.60;99.90
38359;DHT22;42072;48.044;14.416;2023-04-24T00:39:39;12.70;99.90
38359;DHT22;42072;48.044;14.416;2023-04-24T00:42:07;12.70;99.90
38359;DHT22;42072;48.044;14.416;2023-04-24T00:44:34;12.70;99.90
38359;DHT22;42072;48.044;14.416;2023-04-24T00:47:02;12.60;99.90
38359;DHT22;42072;48.044;14.416;2023-04-24T00:49:29;12.70;99.90
38359;DHT22;42072;48.044;14.416;2023-04-24T00:51:57;12.70;99.90
38359;DHT22;42072;48.044;14.416;2023-04-24T00:54:26;12.60;99.90
38359;DHT22;42072;48.044;14.416;2023-04-24T00:56:53;12.60;99.90
38359;DHT22;42072;48.044;14.416;2023-04-24T00:59:20;12.50;99.90
38359;DHT22;42072;48.044;14.416;2023-04-24T01:01:47;12.50;99.90
38359;DHT22;42072;48.044;14.416;2023-04-24T01:04:16;12.40;99.90
38359;DHT22;42072;48.044;14.416;2023-04-24T01:06:45;12.40;99.90
38359;DHT22;42072;48.044;14.416;2023-04-24T01:09:13;12.40;99.90
38359;DHT22;42072;48.044;14.416;2023-04-24T01:11:41;12.40;99.90
38359;DHT22;42072;48.044;14.416;2023-04-24T01:14:10;12.40;99.90
38359;DHT22;42072;48.044;14.416;2023-04-24T01:16:37;12.40;99.90
38359;DHT22;42072;48.044;14.416;2023-04-24T01:19:08;12.40;99.90
38359;DHT22;42072;48.044;14.416;2023-04-24T01:21:37;12.30;99.90
38359;DHT22;42072;48.044;14.416;2023-04-24T01:24:05;12.30;99.90
38359;DHT22;42072;48.044;14.416;2023-04-24T01:26:32;12.30;99.90
38359;DHT22;42072;48.044;14.416;2023-04-24T01:29:00;12.30;99.90
38359;DHT22;42072;48.044;14.416;2023-04-24T01:31:28;12.30;99.90
38359;DHT22;42072;48.044;14.416;2023-04-24T01:33:56;12.30;99.90
38359;DHT22;42072;48.044;14.416;2023-04-24T01:36:24;12.20;99.90
38359;DHT22;42072;48.044;14.416;2023-04-24T01:38:54;12.20;99.90
38359;DHT22;42072;48.044;14.416;2023-04-24T01:41:21;12.20;99.90
38359;DHT22;42072;48.044;14.416;2023-04-24T01:43:49;12.20;99.90
38359;DHT22;42072;48.044;14.416;2023-04-24T01:46:17;12.10;99.90
38359;DHT22;42072;48.044;14.416;2023-04-24T01:48:45;12.10;99.90
38359;DHT22;42072;48.044;14.416;2023-04-24T01:51:12;12.10;99.90
38359;DHT22;42072;48.044;14.416;2023-04-24T01:53:39;12.00;99.90
38359;DHT22;42072;48.044;14.416;2023-04-24T01:56:07;12.00;99.90
38359;DHT22;42072;48.044;14.416;2023-04-24T01:58:34;12.00;99.90
38359;DHT22;42072;48.044;14.416;2023-04-24T02:01:01;12.00;99.90
38359;DHT22;42072;48.044;14.416;2023-04-24T02:03:28;12.00;99.90
38359;DHT22;42072;48.044;14.416;2023-04-24T02:05:56;12.00;99.90
38359;DHT22;42072;48.044;14.416;2023-04-24T02:08:23;12.00;99.90
38359;DHT22;42072;48.044;14.416;2023-04-24T02:10:51;12.00;99.90
38359;DHT22;42072;48.044;14.416;2023-04-24T02:13:18;12.00;1.00
38359;DHT22;42072;48.044;14.416;2023-04-24T02:15:45;12.00;1.00
38359;DHT22;42072;48.044;14.416;2023-04-24T02:18:12;11.90;1.00
38359;DHT22;42072;48.044;14.416;2023-04-24T02:20:39;11.90;1.00
38359;DHT22;42072;48.044;14.416;2023-04-24T02:23:07;11.90;1.00
38359;DHT22;42072;48.044;14.416;2023-04-24T02:25:34;11.80;1.00
38359;DHT22;42072;48.044;14.416;2023-04-24T02:28:01;11.80;1.00
38359;DHT22;42072;48.044;14.416;2023-04-24T02:30:29;11.80;1.00
38359;DHT22;42072;48.044;14.416;2023-04-24T02:32:56;11.80;1.00
38359;DHT22;42072;48.044;14.416;2023-04-24T02:35:25;11.80;1.00
38359;DHT22;42072;48.044;14.416;2023-04-24T02:37:52;11.80;1.00
38359;DHT22;42072;48.044;14.416;2023-04-24T02:40:19;11.80;1.00
38359;DHT22;42072;48.044;14.416;2023-04-24T02:42:47;11.80;1.00
38359;DHT22;42072;48.044;14.416;2023-04-24T02:45:14;11.80;1.00
38359;DHT22;42072;48.044;14.416;2023-04-24T02:47:41;11.80;1.00
38359;DHT22;42072;48.044;14.416;2023-04-24T02:50:08;11.90;1.00
38359;DHT22;42072;48.044;14.416;2023-04-24T02:52:35;11.80;1.00
38359;DHT22;42072;48.044;14.416;2023-04-24T02:55:03;11.90;1.00
38359;DHT22;42072;48.044;14.416;2023-04-24T02:57:30;11.90;1.00
38359;DHT22;42072;48.044;14.416;2023-04-24T02:59:57;11.80;1.00
38359;DHT22;42072;48.044;14.416;2023-04-24T03:02:25;11.80;1.00
38359;DHT22;42072;48.044;14.416;2023-04-24T03:04:52;11.90;1.00
38359;DHT22;42072;48.044;14.416;2023-04-24T03:07:19;11.80;1.00
38359;DHT22;42072;48.044;14.416;2023-04-24T03:09:47;11.80;1.00
38359;DHT22;42072;48.044;14.416;2023-04-24T03:12:14;11.80;1.00
38359;DHT22;42072;48.044;14.416;2023-04-24T03:14:44;11.80;1.00
38359;DHT22;42072;48.044;14.416;2023-04-24T03:17:11;11.70;1.00
38359;DHT22;42072;48.044;14.416;2023-04-24T03:19:38;11.70;1.00
38359;DHT22;42072;48.044;14.416;2023-04-24T03:22:06;11.80;1.00
38359;DHT22;42072;48.044;14.416;2023-04-24T03:24:33;11.70;1.00
38359;DHT22;42072;48.044;14.416;2023-04-24T03:27:00;11.70;1.00
38359;DHT22;42072;48.044;14.416;2023-04-24T03:29:28;11.70;1.00
38359;DHT22;42072;48.044;14.416;2023-04-24T03:31:56;11.70;1.00
38359;DHT22;42072;48.044;14.416;2023-04-24T03:34:23;11.70;1.00
38359;DHT22;42072;48.044;14.416;2023-04-24T03:36:50;11.70;1.00
38359;DHT22;42072;48.044;14.416;2023-04-24T03:39:17;11.70;1.00
38359;DHT22;42072;48.044;14.416;2023-04-24T03:41:45;11.70;1.00
38359;DHT22;42072;48.044;14.416;2023-04-24T03:44:12;11.70;1.00
38359;DHT22;42072;48.044;14.416;2023-04-24T03:46:39;11.70;1.00
38359;DHT22;42072;48.044;14.416;2023-04-24T03:49:06;11.70;1.00
38359;DHT22;42072;48.044;14.416;2023-04-24T03:51:33;11.70;1.00
38359;DHT22;42072;48.044;14.416;2023-04-24T03:54:00;11.70;1.00
38359;DHT22;42072;48.044;14.416;2023-04-24T03:56:28;11.70;1.00
38359;DHT22;42072;48.044;14.416;2023-04-24T03:58:55;11.70;1.00
38359;DHT22;42072;48.044;14.416;2023-04-24T04:01:22;11.70;1.00
38359;DHT22;42072;48.044;14.416;2023-04-24T04:03:50;11.70;99.90
38359;DHT22;42072;48.044;14.416;2023-04-24T04:06:18;11.70;99.90
38359;DHT22;42072;48.044;14.416;2023-04-24T04:08:46;11.70;99.90
38359;DHT22;42072;48.044;14.416;2023-04-24T04:11:13;11.80;99.90
38359;DHT22;42072;48.044;14.416;2023-04-24T04:13:40;11.80;99.90
38359;DHT22;42072;48.044;14.416;2023-04-24T04:16:08;11.80;99.90
38359;DHT22;42072;48.044;14.416;2023-04-24T04:18:35;11.80;99.90
38359;DHT22;42072;48.044;14.416;2023-04-24T04:21:03;11.90;99.90
38359;DHT22;42072;48.044;14.416;2023-04-24T04:23:30;11.90;99.90
38359;DHT22;42072;48.044;14.416;2023-04-24T04:25:59;11.90;99.90
38359;DHT22;42072;48.044;14.416;2023-04-24T04:28:26;11.90;99.90
38359;DHT22;42072;48.044;14.416;2023-04-24T04:30:54;11.90;99.90
38359;DHT22;42072;48.044;14.416;2023-04-24T04:33:22;12.00;99.90
38359;DHT22;42072;48.044;14.416;2023-04-24T04:35:49;11.90;99.90
38359;DHT22;42072;48.044;14.416;2023-04-24T04:38:19;11.90;99.90
38359;DHT22;42072;48.044;14.416;2023-04-24T04:40:46;11.90;99.90
38359;DHT22;42072;48.044;14.416;2023-04-24T04:43:14;11.90;99.90
38359;DHT22;42072;48.044;14.416;2023-04-24T04:45:42;11.90;99.90
38359;DHT22;42072;48.044;14.416;2023-04-24T04:48:10;11.80;99.90
38359;DHT22;42072;48.044;14.416;2023-04-24T04:50:40;11.80;99.90
38359;DHT22;42072;48.044;14.416;2023-04-24T04:53:07;11.70;99.90
38359;DHT22;42072;48.044;14.416;2023-04-24T04:55:34;11.70;99.90
38359;DHT22;42072;48.044;14.416;2023-04-24T04:58:01;11.60;99.90
38359;DHT22;42072;48.044;14.416;2023-04-24T05:00:29;11.60;99.90
38359;DHT22;42072;48.044;14.416;2023-04-24T05:03:02;11.60;99.90
38359;DHT22;42072;48.044;14.416;2023-04-24T05:05:46;11.50;99.90
38359;DHT22;42072;48.044;14.416;2023-04-24T05:08:13;11.30;99.90
38359;DHT22;42072;48.044;14.416;2023-04-24T05:10:44;11.30;99.90
38359;DHT22;42072;48.044;14.416;2023-04-24T05:13:11;11.30;99.90
38359;DHT22;42072;48.044;14.416;2023-04-24T05:15:39;11.30;1.00
38359;DHT22;42072;48.044;14.416;2023-04-24T05:18:07;11.20;1.00
38359;DHT22;42072;48.044;14.416;2023-04-24T05:20:35;11.20;1.00
38359;DHT22;42072;48.044;14.416;2023-04-24T05:23:02;11.20;1.00
38359;DHT22;42072;48.044;14.416;2023-04-24T05:25:29;11.10;1.00
38359;DHT22;42072;48.044;14.416;2023-04-24T05:27:59;11.10;1.00
38359;DHT22;42072;48.044;14.416;2023-04-24T05:30:26;11.10;1.00
38359;DHT22;42072;48.044;14.416;2023-04-24T05:32:53;11.10;1.00
38359;DHT22;42072;48.044;14.416;2023-04-24T05:35:20;11.10;1.00
38359;DHT22;42072;48.044;14.416;2023-04-24T05:37:47;11.30;1.00
38359;DHT22;42072;48.044;14.416;2023-04-24T05:40:14;11.30;1.00
38359;DHT22;42072;48.044;14.416;2023-04-24T05:42:41;11.30;1.00
38359;DHT22;42072;48.044;14.416;2023-04-24T05:45:09;11.20;1.00
38359;DHT22;42072;48.044;14.416;2023-04-24T05:47:41;11.10;1.00
38359;DHT22;42072;48.044;14.416;2023-04-24T05:50:09;11.10;1.00
38359;DHT22;42072;48.044;14.416;2023-04-24T05:52:36;11.00;1.00
38359;DHT22;42072;48.044;14.416;2023-04-24T05:55:03;10.90;1.00
38359;DHT22;42072;48.044;14.416;2023-04-24T05:57:30;10.90;1.00
38359;DHT22;42072;48.044;14.416;2023-04-24T05:59:58;10.90;1.00
38359;DHT22;42072;48.044;14.416;2023-04-24T06:02:25;10.90;1.00
38359;DHT22;42072;48.044;14.416;2023-04-24T06:04:52;10.90;1.00
38359;DHT22;42072;48.044;14.416;2023-04-24T06:07:20;10.80;1.00
38359;DHT22;42072;48.044;14.416;2023-04-24T06:09:47;10.80;1.00
38359;DHT22;42072;48.044;14.416;2023-04-24T06:12:14;10.90;1.00
38359;DHT22;42072;48.044;14.416;2023-04-24T06:14:42;10.90;1.00
38359;DHT22;42072;48.044;14.416;2023-04-24T06:17:09;11.00;1.00
38359;DHT22;42072;48.044;14.416;2023-04-24T06:19:36;11.00;1.00
38359;DHT22;42072;48.044;14.416;2023-04-24T06:22:04;11.00;1.00
38359;DHT22;42072;48.044;14.416;2023-04-24T06:24:31;11.00;1.00
38359;DHT22;42072;48.044;14.416;2023-04-24T06:26:58;11.10;1.00
38359;DHT22;42072;48.044;14.416;2023-04-24T06:29:27;11.00;1.00
38359;DHT22;42072;48.044;14.416;2023-04-24T06:31:54;11.10;1.00
38359;DHT22;42072;48.044;14.416;2023-04-24T06:34:22;11.10;1.00
38359;DHT22;42072;48.044;14.416;2023-04-24T06:36:51;11.20;1.00
38359;DHT22;42072;48.044;14.416;2023-04-24T06:39:18;11.20;1.00
38359;DHT22;42072;48.044;14.416;2023-04-24T06:41:45;11.20;1.00
38359;DHT22;42072;48.044;14.416;2023-04-24T06:44:13;11.20;1.00
38359;DHT22;42072;48.044;14.416;2023-04-24T06:46:41;11.30;1.00
38359;DHT22;42072;48.044;14.416;2023-04-24T06:49:09;11.40;1.00
38359;DHT22;42072;48.044;14.416;2023-04-24T06:51:37;11.40;1.00
38359;DHT22;42072;48.044;14.416;2023-04-24T06:54:04;11.50;1.00
38359;DHT22;42072;48.044;14.416;2023-04-24T06:56:31;11.60;99.90
38359;DHT22;42072;48.044;14.416;2023-04-24T06:58:58;11.70;99.90
38359;DHT22;42072;48.044;14.416;2023-04-24T07:01:25;11.70;99.90
38359;DHT22;42072;48.044;14.416;2023-04-24T07:03:53;11.80;99.90
38359;DHT22;42072;48.044;14.416;2023-04-24T07:06:20;11.90;99.90
38359;DHT22;42072;48.044;14.416;2023-04-24T07:08:49;11.90;99.90
38359;DHT22;42072;48.044;14.416;2023-04-24T07:11:17;11.90;99.90
38359;DHT22;42072;48.044;14.416;2023-04-24T07:13:44;12.00;99.90
38359;DHT22;42072;48.044;14.416;2023-04-24T07:16:11;12.00;99.90
38359;DHT22;42072;48.044;14.416;2023-04-24T07:18:38;12.20;99.90
38359;DHT22;42072;48.044;14.416;2023-04-24T07:21:06;12.30;99.90
38359;DHT22;42072;48.044;14.416;2023-04-24T07:23:34;12.40;99.90
38359;DHT22;42072;48.044;14.416;2023-04-24T07:26:01;12.50;99.90
38359;DHT22;42072;48.044;14.416;2023-04-24T07:28:28;12.60;99.90
38359;DHT22;42072;48.044;14.416;2023-04-24T07:30:58;12.70;99.90
38359;DHT22;42072;48.044;14.416;2023-04-24T07:33:26;12.90;99.90
38359;DHT22;42072;48.044;14.416;2023-04-24T07:35:54;13.00;99.90
38359;DHT22;42072;48.044;14.416;2023-04-24T07:38:21;13.00;99.90
38359;DHT22;42072;48.044;14.416;2023-04-24T07:40:49;13.00;99.90
38359;DHT22;42072;48.044;14.416;2023-04-24T07:43:16;13.00;99.90
38359;DHT22;42072;48.044;14.416;2023-04-24T07:45:44;13.00;99.90
38359;DHT22;42072;48.044;14.416;2023-04-24T07:48:12;13.10;99.90
38359;DHT22;42072;48.044;14.416;2023-04-24T07:50:42;13.10;99.90
38359;DHT22;42072;48.044;14.416;2023-04-24T07:53:09;12.90;99.90
38359;DHT22;42072;48.044;14.416;2023-04-24T07:55:37;12.90;99.90
38359;DHT22;42072;48.044;14.416;2023-04-24T07:58:05;12.90;99.90
38359;DHT22;42072;48.044;14.416;2023-04-24T08:00:32;13.00;99.90
38359;DHT22;42072;48.044;14.416;2023-04-24T08:03:00;13.00;99.90
38359;DHT22;42072;48.044;14.416;2023-04-24T08:05:27;13.00;99.90
38359;DHT22;42072;48.044;14.416;2023-04-24T08:07:55;13.10;99.90
38359;DHT22;42072;48.044;14.416;2023-04-24T08:10:23;13.30;99.90
38359;DHT22;42072;48.044;14.416;2023-04-24T08:12:50;13.20;99.90
38359;DHT22;42072;48.044;14.416;2023-04-24T08:15:18;13.10;99.90
38359;DHT22;42072;48.044;14.416;2023-04-24T08:17:45;13.30;99.90
38359;DHT22;42072;48.044;14.416;2023-04-24T08:20:12;13.40;99.90
38359;DHT22;42072;48.044;14.416;2023-04-24T08:22:43;13.50;99.90
38359;DHT22;42072;48.044;14.416;2023-04-24T08:25:11;13.50;99.90
38359;DHT22;42072;48.044;14.416;2023-04-24T08:27:38;13.50;99.90
38359;DHT22;42072;48.044;14.416;2023-04-24T08:30:06;13.40;99.90
38359;DHT22;42072;48.044;14.416;2023-04-24T08:32:33;13.50;99.90
38359;DHT22;42072;48.044;14.416;2023-04-24T08:35:00;13.60;99.90
38359;DHT22;42072;48.044;14.416;2023-04-24T08:37:28;13.50;99.90
38359;DHT22;42072;48.044;14.416;2023-04-24T08:39:55;13.50;99.90
38359;DHT22;42072;48.044;14.416;2023-04-24T08:42:23;13.50;99.90
38359;DHT22;42072;48.044;14.416;2023-04-24T08:44:51;13.50;99.90
38359;DHT22;42072;48.044;14.416;2023-04-24T08:47:20;13.60;99.90
38359;DHT22;42072;48.044;14.416;2023-04-24T08:49:48;13.60;99.90
38359;DHT22;42072;48.044;14.416;2023-04-24T08:52:18;13.60;99.90
38359;DHT22;42072;48.044;14.416;2023-04-24T08:54:47;13.50;99.90
38359;DHT22;42072;48.044;14.416;2023-04-24T08:57:15;13.40;99.90
38359;DHT22;42072;48.044;14.416;2023-04-24T08:59:43;13.40;99.90
38359;DHT22;42072;48.044;14.416;2023-04-24T09:02:12;13.40;99.90
38359;DHT22;42072;48.044;14.416;2023-04-24T09:04:40;13.50;99.90
38359;DHT22;42072;48.044;14.416;2023-04-24T09:07:10;13.60;99.90
38359;DHT22;42072;48.044;14.416;2023-04-24T09:09:39;13.80;99.90
38359;DHT22;42072;48.044;14.416;2023-04-24T09:12:07;13.80;99.90
38359;DHT22;42072;48.044;14.416;2023-04-24T09:14:37;13.80;99.90
38359;DHT22;42072;48.044;14.416;2023-04-24T09:17:12;13.90;99.90
38359;DHT22;42072;48.044;14.416;2023-04-24T09:19:40;14.00;99.90
38359;DHT22;42072;48.044;14.416;2023-04-24T09:22:09;14.10;99.90
38359;DHT22;42072;48.044;14.416;2023-04-24T09:24:36;14.30;99.90
38359;DHT22;42072;48.044;14.416;2023-04-24T09:27:04;14.50;99.90
38359;DHT22;42072;48.044;14.416;2023-04-24T09:29:31;14.60;99.90
38359;DHT22;42072;48.044;14.416;2023-04-24T09:31:59;14.60;85.30
38359;DHT22;42072;48.044;14.416;2023-04-24T09:34:47;14.70;94.80
38359;DHT22;42072;48.044;14.416;2023-04-24T09:37:28;14.60;77.80
38359;DHT22;42072;48.044;14.416;2023-04-24T09:40:18;14.70;70.80
38359;DHT22;42072;48.044;14.416;2023-04-24T09:42:51;14.90;70.00
38359;DHT22;42072;48.044;14.416;2023-04-24T09:45:20;15.10;56.70
38359;DHT22;42072;48.044;14.416;2023-04-24T09:47:51;15.40;51.00
38359;DHT22;42072;48.044;14.416;2023-04-24T09:50:20;15.60;15.30
38359;DHT22;42072;48.044;14.416;2023-04-24T09:52:59;15.90;28.00
38359;DHT22;42072;48.044;14.416;2023-04-24T09:55:29;16.20;11.00
38359;DHT22;42072;48.044;14.416;2023-04-24T09:57:58;16.40;1.00
38359;DHT22;42072;48.044;14.416;2023-04-24T10:00:31;16.60;1.00
38359;DHT22;42072;48.044;14.416;2023-04-24T10:03:00;16.80;1.00
38359;DHT22;42072;48.044;14.416;2023-04-24T10:08:08;16.60;1.00
38359;DHT22;42072;48.044;14.416;2023-04-24T10:10:41;16.70;1.00
38359;DHT22;42072;48.044;14.416;2023-04-24T10:13:10;16.70;1.00
38359;DHT22;42072;48.044;14.416;2023-04-24T10:15:38;17.10;1.00
38359;DHT22;42072;48.044;14.416;2023-04-24T10:18:08;17.40;1.00
38359;DHT22;42072;48.044;14.416;2023-04-24T10:20:39;17.10;1.00
38359;DHT22;42072;48.044;14.416;2023-04-24T10:23:06;17.30;1.00
38359;DHT22;42072;48.044;14.416;2023-04-24T10:25:36;17.30;1.00
38359;DHT22;42072;48.044;14.416;2023-04-24T10:28:04;17.60;1.00
38359;DHT22;42072;48.044;14.416;2023-04-24T10:30:35;17.40;1.00
38359;DHT22;42072;48.044;14.416;2023-04-24T10:33:03;17.10;1.00
38359;DHT22;42072;48.044;14.416;2023-04-24T10:35:40;16.80;1.00
38359;DHT22;42072;48.044;14.416;2023-04-24T10:38:15;16.40;1.00
38359;DHT22;42072;48.044;14.416;2023-04-24T10:40:43;16.30;1.00
38359;DHT22;42072;48.044;14.416;2023-04-24T10:43:16;16.00;1.00
38359;DHT22;42072;48.044;14.416;2023-04-24T10:46:04;16.30;1.00
38359;DHT22;42072;48.044;14.416;2023-04-24T10:48:33;16.50;1.00
38359;DHT22;42072;48.044;14.416;2023-04-24T10:51:01;16.80;1.00
38359;DHT22;42072;48.044;14.416;2023-04-24T10:53:29;16.80;1.00
38359;DHT22;42072;48.044;14.416;2023-04-24T10:56:05;16.80;1.00
38359;DHT22;42072;48.044;14.416;2023-04-24T10:58:41;16.90;1.00
38359;DHT22;42072;48.044;14.416;2023-04-24T11:01:25;17.50;1.00
38359;DHT22;42072;48.044;14.416;2023-04-24T11:04:04;18.00;1.00
38359;DHT22;42072;48.044;14.416;2023-04-24T11:06:37;18.30;1.00
38359;DHT22;42072;48.044;14.416;2023-04-24T11:09:10;18.40;1.00
38359;DHT22;42072;48.044;14.416;2023-04-24T11:11:45;18.40;1.00
38359;DHT22;42072;48.044;14.416;2023-04-24T11:14:16;18.40;1.00
38359;DHT22;42072;48.044;14.416;2023-04-24T11:16:53;18.30;1.00
38359;DHT22;42072;48.044;14.416;2023-04-24T11:19:25;18.40;1.00
38359;DHT22;42072;48.044;14.416;2023-04-24T11:22:01;18.50;1.00
38359;DHT22;42072;48.044;14.416;2023-04-24T11:29:45;17.90;1.00
38359;DHT22;42072;48.044;14.416;2023-04-24T11:35:15;18.00;1.00
38359;DHT22;42072;48.044;14.416;2023-04-24T11:37:51;18.60;1.00
38359;DHT22;42072;48.044;14.416;2023-04-24T11:40:38;18.90;1.00
38359;DHT22;42072;48.044;14.416;2023-04-24T11:43:07;19.10;1.00
38359;DHT22;42072;48.044;14.416;2023-04-24T11:45:35;19.10;1.00
38359;DHT22;42072;48.044;14.416;2023-04-24T11:48:03;19.00;1.00
38359;DHT22;42072;48.044;14.416;2023-04-24T11:50:30;18.60;1.00
38359;DHT22;42072;48.044;14.416;2023-04-24T11:52:57;18.40;1.00
38359;DHT22;42072;48.044;14.416;2023-04-24T11:55:28;18.10;1.00
38359;DHT22;42072;48.044;14.416;2023-04-24T11:57:59;17.90;1.00
38359;DHT22;42072;48.044;14.416;2023-04-24T12:00:32;18.10;1.00
38359;DHT22;42072;48.044;14.416;2023-04-24T12:03:19;18.50;1.00
38359;DHT22;42072;48.044;14.416;2023-04-24T12:05:46;18.70;1.00
38359;DHT22;42072;48.044;14.416;2023-04-24T12:08:27;18.90;1.00
38359;DHT22;42072;48.044;14.416;2023-04-24T12:10:55;19.10;1.00
38359;DHT22;42072;48.044;14.416;2023-04-24T12:13:25;19.20;1.00
38359;DHT22;42072;48.044;14.416;2023-04-24T12:15:53;19.00;1.00
38359;DHT22;42072;48.044;14.416;2023-04-24T12:18:24;19.00;1.00
38359;DHT22;42072;48.044;14.416;2023-04-24T12:20:51;19.30;1.00
38359;DHT22;42072;48.044;14.416;2023-04-24T12:23:35;19.00;1.00
38359;DHT22;42072;48.044;14.416;2023-04-24T12:26:05;18.90;1.00
38359;DHT22;42072;48.044;14.416;2023-04-24T12:28:37;18.90;1.00
38359;DHT22;42072;48.044;14.416;2023-04-24T12:31:05;18.50;1.00
38359;DHT22;42072;48.044;14.416;2023-04-24T12:33:34;17.70;1.00
38359;DHT22;42072;48.044;14.416;2023-04-24T12:36:02;17.00;1.00
38359;DHT22;42072;48.044;14.416;2023-04-24T12:38:29;15.50;1.00
38359;DHT22;42072;48.044;14.416;2023-04-24T12:41:08;13.90;1.00
38359;DHT22;42072;48.044;14.416;2023-04-24T12:43:36;12.20;1.00
38359;DHT22;42072;48.044;14.416;2023-04-24T12:46:04;11.40;97.50
38359;DHT22;42072;48.044;14.416;2023-04-24T12:48:32;11.00;99.90
38359;DHT22;42072;48.044;14.416;2023-04-24T12:50:59;10.60;99.90
38359;DHT22;42072;48.044;14.416;2023-04-24T12:53:30;10.40;99.90
38359;DHT22;42072;48.044;14.416;2023-04-24T12:55:58;10.30;99.90
38359;DHT22;42072;48.044;14.416;2023-04-24T12:58:25;10.30;99.90
38359;DHT22;42072;48.044;14.416;2023-04-24T13:00:52;10.40;99.90
38359;DHT22;42072;48.044;14.416;2023-04-24T13:03:20;10.60;99.90
38359;DHT22;42072;48.044;14.416;2023-04-24T13:05:47;10.80;99.90
38359;DHT22;42072;48.044;14.416;2023-04-24T13:08:15;11.00;99.90
38359;DHT22;42072;48.044;14.416;2023-04-24T13:10:42;11.30;99.90
38359;DHT22;42072;48.044;14.416;2023-04-24T13:13:09;11.60;99.90
38359;DHT22;42072;48.044;14.416;2023-04-24T13:15:37;11.90;99.90
38359;DHT22;42072;48.044;14.416;2023-04-24T13:18:06;12.20;99.90
38359;DHT22;42072;48.044;14.416;2023-04-24T13:20:33;12.30;99.90
38359;DHT22;42072;48.044;14.416;2023-04-24T13:23:02;12.50;99.90
38359;DHT22;42072;48.044;14.416;2023-04-24T13:25:36;12.70;99.90
38359;DHT22;42072;48.044;14.416;2023-04-24T13:28:04;12.90;99.90
38359;DHT22;42072;48.044;14.416;2023-04-24T13:30:31;13.20;99.90
38359;DHT22;42072;48.044;14.416;2023-04-24T13:32:58;13.70;99.90
38359;DHT22;42072;48.044;14.416;2023-04-24T13:35:26;14.20;99.90
38359;DHT22;42072;48.044;14.416;2023-04-24T13:37:53;14.70;89.70
38359;DHT22;42072;48.044;14.416;2023-04-24T13:40:20;15.20;50.60
38359;DHT22;42072;48.044;14.416;2023-04-24T13:42:47;15.20;11.10
38359;DHT22;42072;48.044;14.416;2023-04-24T13:45:14;15.10;20.60
38359;DHT22;42072;48.044;14.416;2023-04-24T13:47:51;15.20;22.80
38359;DHT22;42072;48.044;14.416;2023-04-24T13:50:19;15.30;13.00
38359;DHT22;42072;48.044;14.416;2023-04-24T13:52:46;15.40;1.00
38359;DHT22;42072;48.044;14.416;2023-04-24T13:55:13;15.70;1.00
38359;DHT22;42072;48.044;14.416;2023-04-24T13:57:40;16.00;1.00
38359;DHT22;42072;48.044;14.416;2023-04-24T14:00:08;16.00;1.00
38359;DHT22;42072;48.044;14.416;2023-04-24T14:02:37;16.30;1.00
38359;DHT22;42072;48.044;14.416;2023-04-24T14:05:05;16.40;1.00
38359;DHT22;42072;48.044;14.416;2023-04-24T14:07:33;16.50;1.00
38359;DHT22;42072;48.044;14.416;2023-04-24T14:10:00;16.50;1.00
38359;DHT22;42072;48.044;14.416;2023-04-24T14:12:27;16.50;1.00
38359;DHT22;42072;48.044;14.416;2023-04-24T14:14:55;16.40;1.00
38359;DHT22;42072;48.044;14.416;2023-04-24T14:17:22;16.20;1.00
38359;DHT22;42072;48.044;14.416;2023-04-24T14:19:49;16.00;1.00
38359;DHT22;42072;48.044;14.416;2023-04-24T14:22:18;15.60;1.00
38359;DHT22;42072;48.044;14.416;2023-04-24T14:24:45;14.90;1.00
38359;DHT22;42072;48.044;14.416;2023-04-24T14:27:13;14.50;1.00
38359;DHT22;42072;48.044;14.416;2023-04-24T14:29:40;14.30;1.00
38359;DHT22;42072;48.044;14.416;2023-04-24T14:32:08;14.20;1.00
38359;DHT22;42072;48.044;14.416;2023-04-24T14:34:35;14.10;1.00
38359;DHT22;42072;48.044;14.416;2023-04-24T14:37:04;13.80;6.50
38359;DHT22;42072;48.044;14.416;2023-04-24T14:39:31;13.80;35.20
38359;DHT22;42072;48.044;14.416;2023-04-24T14:41:58;13.80;49.70
38359;DHT22;42072;48.044;14.416;2023-04-24T14:44:25;13.80;47.70
38359;DHT22;42072;48.044;14.416;2023-04-24T14:46:53;13.70;67.00
38359;DHT22;42072;48.044;14.416;2023-04-24T14:49:20;13.80;77.70
38359;DHT22;42072;48.044;14.416;2023-04-24T14:51:47;13.80;70.80
38359;DHT22;42072;48.044;14.416;2023-04-24T14:54:14;13.70;63.00
38359;DHT22;42072;48.044;14.416;2023-04-24T14:56:42;13.80;94.10
38359;DHT22;42072;48.044;14.416;2023-04-24T14:59:11;13.70;96.90
38359;DHT22;42072;48.044;14.416;2023-04-24T15:01:38;13.50;99.90
38359;DHT22;42072;48.044;14.416;2023-04-24T15:04:05;13.20;96.90
38359;DHT22;42072;48.044;14.416;2023-04-24T15:06:33;13.00;99.90
38359;DHT22;42072;48.044;14.416;2023-04-24T15:09:00;12.60;63.70
38359;DHT22;42072;48.044;14.416;2023-04-24T15:11:27;12.40;35.00
38359;DHT22;42072;48.044;14.416;2023-04-24T15:13:56;12.00;46.90
38359;DHT22;42072;48.044;14.416;2023-04-24T15:16:24;11.80;89.10
38359;DHT22;42072;48.044;14.416;2023-04-24T15:18:51;11.70;99.90
38359;DHT22;42072;48.044;14.416;2023-04-24T15:21:19;11.60;99.90
38359;DHT22;42072;48.044;14.416;2023-04-24T15:23:46;11.70;99.90
38359;DHT22;42072;48.044;14.416;2023-04-24T15:26:14;11.70;99.90
38359;DHT22;42072;48.044;14.416;2023-04-24T15:28:41;11.70;99.90
38359;DHT22;42072;48.044;14.416;2023-04-24T15:31:08;11.60;99.90
38359;DHT22;42072;48.044;14.416;2023-04-24T15:33:36;11.60;99.90
38359;DHT22;42072;48.044;14.416;2023-04-24T15:36:03;11.60;99.90
38359;DHT22;42072;48.044;14.416;2023-04-24T15:38:30;11.70;99.90
38359;DHT22;42072;48.044;14.416;2023-04-24T15:40:58;11.70;99.90